createdAt,value
2023-04-23T00:02:09.393Z,134.27
2023-04-23T00:04:39.176Z,133.77
2023-04-23T00:07:09.131Z,133.17
2023-04-23T00:09:40.110Z,132.67
2023-04-23T00:12:09.302Z,133.73
2023-04-23T00:14:37.860Z,133.50
2023-04-23T00:17:06.236Z,132.00
2023-04-23T00:19:34.327Z,126.67
2023-04-23T00:22:03.107Z,128.60
2023-04-23T00:24:32.021Z,127.53
2023-04-23T00:27:01.574Z,129.67
2023-04-23T00:29:29.692Z,130.47
2023-04-23T00:31:57.910Z,130.17
2023-04-23T00:34:26.752Z,127.13
2023-04-23T00:36:54.916Z,123.57
2023-04-23T00:39:23.104Z,131.60
2023-04-23T00:41:51.256Z,131.07
2023-04-23T00:44:20.866Z,131.27
2023-04-23T00:46:49.433Z,129.60
2023-04-23T00:49:18.625Z,131.43
2023-04-23T00:51:46.764Z,133.13
2023-04-23T00:54:15.340Z,129.97
2023-04-23T00:56:43.409Z,130.83
2023-04-23T00:59:11.549Z,129.43
2023-04-23T01:01:41.899Z,126.70
2023-04-23T01:04:10.809Z,129.43
2023-04-23T01:06:38.972Z,121.97
2023-04-23T01:09:07.529Z,123.53
2023-04-23T01:11:35.704Z,122.53
2023-04-23T01:14:04.309Z,121.33
2023-04-23T01:16:33.769Z,123.20
2023-04-23T01:19:03.438Z,121.17
2023-04-23T01:21:32.444Z,121.33
2023-04-23T01:24:02.396Z,119.83
2023-04-23T01:26:30.642Z,121.50
2023-04-23T01:28:59.168Z,120.00
2023-04-23T01:31:28.319Z,120.77
2023-04-23T01:33:57.168Z,119.33
2023-04-23T01:36:27.220Z,117.20
2023-04-23T01:38:55.511Z,122.70
2023-04-23T01:41:25.163Z,121.30
2023-04-23T01:43:53.592Z,120.13
2023-04-23T01:46:22.162Z,122.80
2023-04-23T01:48:50.440Z,118.87
2023-04-23T01:51:18.722Z,120.70
2023-04-23T01:53:46.843Z,121.87
2023-04-23T01:56:17.391Z,122.63
2023-04-23T01:58:47.000Z,123.90
2023-04-23T02:01:15.094Z,121.10
2023-04-23T02:03:43.447Z,120.77
2023-04-23T02:06:11.938Z,120.40
2023-04-23T02:08:41.118Z,119.27
2023-04-23T02:11:09.308Z,123.23
2023-04-23T02:13:37.447Z,123.40
2023-04-23T02:16:07.745Z,115.30
2023-04-23T02:18:35.932Z,113.70
2023-04-23T02:21:04.646Z,116.83
2023-04-23T02:23:32.785Z,117.23
2023-04-23T02:26:00.919Z,116.97
2023-04-23T02:28:29.001Z,116.37
2023-04-23T02:30:57.129Z,119.20
2023-04-23T02:33:26.812Z,116.87
2023-04-23T02:35:55.035Z,117.47
2023-04-23T02:38:23.208Z,121.40
2023-04-23T02:40:51.386Z,119.70
2023-04-23T02:43:19.471Z,123.77
2023-04-23T02:45:47.605Z,118.60
2023-04-23T02:48:15.832Z,121.33
2023-04-23T02:50:46.782Z,115.17
2023-04-23T02:53:14.966Z,113.43
2023-04-23T02:55:43.196Z,121.97
2023-04-23T02:58:11.883Z,125.57
2023-04-23T03:00:40.162Z,124.47
2023-04-23T03:03:09.483Z,120.97
2023-04-23T03:05:39.571Z,114.33
2023-04-23T03:08:09.120Z,119.80
2023-04-23T03:10:37.224Z,117.70
2023-04-23T03:13:05.513Z,115.03
2023-04-23T03:15:33.685Z,112.93
2023-04-23T03:18:04.488Z,115.00
2023-04-23T03:20:32.678Z,114.33
2023-04-23T03:23:00.852Z,117.43
2023-04-23T03:25:30.491Z,116.27
2023-04-23T03:27:58.604Z,117.10
2023-04-23T03:30:27.019Z,116.50
2023-04-23T03:32:56.891Z,121.43
2023-04-23T03:35:25.887Z,122.47
2023-04-23T03:37:53.976Z,119.43
2023-04-23T03:40:22.500Z,122.57
2023-04-23T03:42:51.989Z,120.73
2023-04-23T03:45:20.388Z,125.00
2023-04-23T03:47:48.593Z,122.80
2023-04-23T03:50:17.503Z,122.23
2023-04-23T03:52:45.829Z,120.30
2023-04-23T03:55:13.988Z,122.73
2023-04-23T03:57:42.494Z,125.87
2023-04-23T04:00:13.286Z,125.27
2023-04-23T04:02:42.004Z,120.83
2023-04-23T04:05:11.793Z,119.90
2023-04-23T04:07:41.213Z,119.37
2023-04-23T04:10:09.830Z,123.47
2023-04-23T04:12:38.071Z,119.53
2023-04-23T04:15:07.048Z,116.80
2023-04-23T04:17:36.512Z,125.67
2023-04-23T04:20:04.941Z,128.23
2023-04-23T04:22:33.064Z,127.97
2023-04-23T04:25:01.305Z,124.83
2023-04-23T04:27:29.473Z,129.63
2023-04-23T04:29:57.710Z,127.83
2023-04-23T04:32:26.832Z,136.00
2023-04-23T04:34:56.368Z,135.33
2023-04-23T04:37:25.181Z,141.97
2023-04-23T04:39:54.536Z,136.63
2023-04-23T04:42:22.903Z,133.70
2023-04-23T04:44:51.337Z,132.57
2023-04-23T04:47:20.007Z,129.37
2023-04-23T04:49:48.822Z,126.10
2023-04-23T04:52:18.484Z,130.73
2023-04-23T04:54:46.703Z,131.17
2023-04-23T04:57:14.770Z,138.53
2023-04-23T04:59:43.144Z,134.00
2023-04-23T05:02:11.585Z,131.60
2023-04-23T05:04:40.435Z,130.97
2023-04-23T05:07:08.758Z,131.20
2023-04-23T05:09:38.260Z,130.53
2023-04-23T05:12:07.385Z,131.23
2023-04-23T05:14:35.427Z,129.87
2023-04-23T05:17:03.703Z,130.90
2023-04-23T05:19:32.395Z,128.87
2023-04-23T05:22:02.803Z,128.67
2023-04-23T05:24:30.969Z,132.80
2023-04-23T05:27:01.379Z,132.47
2023-04-23T05:29:29.479Z,132.23
2023-04-23T05:31:57.820Z,129.67
2023-04-23T05:34:26.210Z,126.80
2023-04-23T05:36:54.376Z,133.40
2023-04-23T05:39:22.521Z,134.57
2023-04-23T05:41:50.724Z,140.50
2023-04-23T05:44:20.653Z,143.37
2023-04-23T05:46:48.740Z,143.47
2023-04-23T05:49:16.970Z,141.27
2023-04-23T05:51:46.601Z,137.80
2023-04-23T05:54:14.880Z,144.37
2023-04-23T05:56:43.141Z,142.30
2023-04-23T05:59:11.513Z,141.50
2023-04-23T06:01:41.591Z,141.50
2023-04-23T06:04:09.985Z,137.23
2023-04-23T06:06:38.394Z,139.30
2023-04-23T06:09:06.967Z,134.23
2023-04-23T06:11:36.064Z,135.93
2023-04-23T06:14:06.524Z,139.73
2023-04-23T06:16:34.696Z,139.90
2023-04-23T06:19:04.777Z,136.97
2023-04-23T06:21:33.084Z,134.73
2023-04-23T06:24:01.285Z,126.50
2023-04-23T06:26:30.339Z,122.33
2023-04-23T06:28:59.365Z,137.07
2023-04-23T06:31:27.712Z,125.17
2023-04-23T06:33:56.002Z,118.37
2023-04-23T06:36:25.495Z,118.27
2023-04-23T06:38:53.604Z,115.00
2023-04-23T06:41:21.926Z,112.70
2023-04-23T06:43:50.177Z,109.60
2023-04-23T06:46:19.269Z,110.67
2023-04-23T06:48:47.509Z,107.90
2023-04-23T06:51:17.135Z,109.30
2023-04-23T06:53:46.756Z,105.63
2023-04-23T06:56:15.433Z,104.40
2023-04-23T06:58:43.710Z,103.20
2023-04-23T07:01:12.089Z,99.93
2023-04-23T07:03:45.056Z,94.90
2023-04-23T07:06:14.582Z,92.00
2023-04-23T07:08:43.073Z,89.10
2023-04-23T07:11:12.771Z,92.00
2023-04-23T07:13:41.275Z,90.73
2023-04-23T07:16:09.947Z,90.80
2023-04-23T07:18:38.401Z,83.80
2023-04-23T07:21:06.630Z,90.83
2023-04-23T07:23:35.066Z,87.23
2023-04-23T07:26:03.834Z,79.33
2023-04-23T07:28:33.492Z,72.57
2023-04-23T07:31:01.645Z,72.30
2023-04-23T07:33:30.935Z,68.77
2023-04-23T07:35:59.411Z,58.43
2023-04-23T07:38:27.550Z,57.93
2023-04-23T07:40:56.259Z,57.93
2023-04-23T07:43:25.155Z,53.60
2023-04-23T07:45:54.719Z,50.60
2023-04-23T07:48:23.035Z,40.87
2023-04-23T07:50:51.273Z,43.17
2023-04-23T07:53:19.648Z,36.77
2023-04-23T07:55:47.791Z,35.27
2023-04-23T07:58:16.086Z,35.73
2023-04-23T08:00:44.207Z,34.23
2023-04-23T08:03:14.219Z,32.40
2023-04-23T08:05:43.105Z,34.77
2023-04-23T08:08:13.860Z,29.70
2023-04-23T08:10:42.340Z,31.93
2023-04-23T08:13:11.176Z,29.40
2023-04-23T08:15:39.423Z,27.37
2023-04-23T08:18:07.874Z,26.60
2023-04-23T08:20:37.490Z,26.33
2023-04-23T08:23:05.726Z,25.40
2023-04-23T08:25:34.868Z,28.67
2023-04-23T08:28:03.927Z,25.07
2023-04-23T08:30:32.185Z,25.87
2023-04-23T08:33:00.475Z,23.87
2023-04-23T08:35:28.780Z,24.90
2023-04-23T08:37:58.503Z,25.93
2023-04-23T08:40:30.836Z,26.40
2023-04-23T08:43:02.524Z,24.43
2023-04-23T08:45:31.730Z,23.30
2023-04-23T08:48:02.671Z,23.03
2023-04-23T08:50:32.057Z,22.20
2023-04-23T08:53:02.992Z,23.27
2023-04-23T08:55:31.417Z,22.53
2023-04-23T08:57:59.988Z,23.40
2023-04-23T09:00:28.300Z,23.00
2023-04-23T09:02:57.745Z,21.67
2023-04-23T09:05:27.999Z,20.63
2023-04-23T09:07:56.767Z,21.20
2023-04-23T09:10:26.461Z,20.50
2023-04-23T09:12:54.966Z,20.10
2023-04-23T09:15:23.259Z,20.20
2023-04-23T09:17:51.577Z,20.20
2023-04-23T09:20:19.991Z,20.13
2023-04-23T09:22:49.581Z,18.97
2023-04-23T09:25:19.698Z,20.00
2023-04-23T09:27:50.444Z,18.97
2023-04-23T09:30:20.025Z,18.57
2023-04-23T09:32:49.584Z,18.80
2023-04-23T09:35:19.985Z,19.03
2023-04-23T09:37:52.471Z,18.97
2023-04-23T09:40:23.485Z,18.50
2023-04-23T09:42:54.722Z,19.00
2023-04-23T09:45:25.175Z,19.10
2023-04-23T09:47:55.484Z,18.37
2023-04-23T09:50:35.278Z,18.73
2023-04-23T09:53:05.014Z,18.70
2023-04-23T09:55:37.410Z,18.60
2023-04-23T09:58:08.181Z,18.20
2023-04-23T10:00:37.876Z,19.43
2023-04-23T10:03:08.128Z,17.77
2023-04-23T10:05:59.558Z,17.93
2023-04-23T10:08:29.837Z,18.00
2023-04-23T10:11:09.513Z,17.90
2023-04-23T10:13:43.825Z,17.90
2023-04-23T10:16:22.328Z,18.07
2023-04-23T10:18:55.479Z,18.10
2023-04-23T10:21:39.477Z,17.83
2023-04-23T10:24:15.850Z,18.40
2023-04-23T10:26:45.565Z,17.23
2023-04-23T10:29:17.325Z,17.80
2023-04-23T10:31:47.755Z,18.27
2023-04-23T10:34:17.185Z,18.70
2023-04-23T10:36:45.493Z,17.77
2023-04-23T10:41:45.578Z,17.50
2023-04-23T10:44:17.280Z,17.30
2023-04-23T10:46:53.657Z,18.40
2023-04-23T10:49:24.515Z,18.30
2023-04-23T10:52:18.862Z,19.23
2023-04-23T10:54:50.401Z,19.30
2023-04-23T10:57:19.297Z,18.53
2023-04-23T10:59:54.896Z,18.20
2023-04-23T11:02:26.061Z,17.93
2023-04-23T11:04:57.965Z,18.73
2023-04-23T11:07:31.043Z,18.30
2023-04-23T11:10:01.270Z,18.90
2023-04-23T11:12:33.851Z,18.03
2023-04-23T11:15:12.357Z,18.80
2023-04-23T11:18:03.360Z,18.17
2023-04-23T11:20:31.619Z,18.30
2023-04-23T11:22:59.823Z,19.37
2023-04-23T11:25:30.519Z,18.30
2023-04-23T11:27:59.569Z,18.27
2023-04-23T11:30:30.751Z,18.60
2023-04-23T11:33:01.364Z,18.67
2023-04-23T11:35:33.641Z,18.47
2023-04-23T11:38:01.816Z,18.50
2023-04-23T11:40:31.073Z,18.43
2023-04-23T11:42:59.445Z,18.03
2023-04-23T11:45:30.670Z,17.90
2023-04-23T11:48:01.529Z,18.10
2023-04-23T11:50:33.009Z,18.50
2023-04-23T11:53:06.367Z,18.33
2023-04-23T11:55:34.453Z,18.30
2023-04-23T11:58:02.672Z,18.10
2023-04-23T12:00:32.191Z,18.40
2023-04-23T12:03:01.692Z,17.70
2023-04-23T12:05:32.832Z,17.60
2023-04-23T12:08:11.219Z,18.60
2023-04-23T12:10:47.565Z,17.83
2023-04-23T12:13:16.858Z,18.07
2023-04-23T12:15:51.653Z,17.60
2023-04-23T12:18:20.489Z,17.80
2023-04-23T12:20:48.547Z,17.43
2023-04-23T12:23:16.927Z,17.80
2023-04-23T12:25:45.069Z,17.77
2023-04-23T12:28:13.286Z,18.70
2023-04-23T12:30:45.555Z,18.40
2023-04-23T12:33:15.644Z,17.87
2023-04-23T12:35:44.955Z,18.30
2023-04-23T12:38:23.765Z,18.07
2023-04-23T12:40:52.469Z,18.90
2023-04-23T12:43:20.680Z,18.43
2023-04-23T12:45:49.226Z,17.93
2023-04-23T12:48:19.089Z,18.27
2023-04-23T12:50:51.169Z,17.83
2023-04-23T12:53:19.937Z,18.27
2023-04-23T12:55:50.205Z,18.10
2023-04-23T12:58:18.366Z,18.17
2023-04-23T13:00:46.566Z,17.50
2023-04-23T13:03:15.761Z,18.37
2023-04-23T13:05:45.436Z,17.90
2023-04-23T13:08:13.628Z,18.20
2023-04-23T13:10:41.902Z,18.10
2023-04-23T13:13:10.015Z,17.50
2023-04-23T13:15:38.178Z,17.40
2023-04-23T13:18:06.953Z,17.23
2023-04-23T13:20:35.176Z,17.40
2023-04-23T13:23:04.824Z,17.47
2023-04-23T13:25:33.081Z,18.20
2023-04-23T13:28:01.332Z,17.50
2023-04-23T13:30:29.481Z,17.53
2023-04-23T13:32:59.266Z,17.33
2023-04-23T13:35:27.449Z,17.57
2023-04-23T13:37:56.247Z,17.57
2023-04-23T13:40:25.727Z,25.33
2023-04-23T13:42:55.049Z,23.63
2023-04-23T13:45:23.193Z,22.63
2023-04-23T13:47:51.409Z,22.67
2023-04-23T13:50:19.684Z,23.47
2023-04-23T13:52:48.106Z,23.13
2023-04-23T13:55:16.857Z,23.27
2023-04-23T13:57:46.498Z,24.30
2023-04-23T14:00:15.796Z,23.97
2023-04-23T14:02:43.927Z,23.30
2023-04-23T14:05:12.257Z,18.03
2023-04-23T14:07:43.786Z,17.87
2023-04-23T14:10:12.512Z,17.87
2023-04-23T14:12:40.846Z,17.53
2023-04-23T14:15:11.176Z,17.80
2023-04-23T14:17:40.681Z,17.80
2023-04-23T14:20:09.534Z,17.80
2023-04-23T14:22:37.928Z,18.00
2023-04-23T14:25:10.555Z,17.60
2023-04-23T14:27:42.476Z,17.80
2023-04-23T14:30:17.424Z,17.93
2023-04-23T14:32:49.267Z,18.10
2023-04-23T14:35:22.727Z,17.97
2023-04-23T14:37:57.691Z,18.20
2023-04-23T14:40:25.847Z,18.10
2023-04-23T14:42:56.994Z,18.80
2023-04-23T14:45:31.306Z,19.10
2023-04-23T14:47:59.897Z,19.00
2023-04-23T14:50:28.886Z,18.50
2023-04-23T14:52:58.825Z,18.87
2023-04-23T14:55:27.107Z,18.87
2023-04-23T14:57:55.215Z,20.30
2023-04-23T15:00:23.531Z,20.87
2023-04-23T15:02:53.352Z,21.73
2023-04-23T15:05:21.583Z,23.67
2023-04-23T15:07:51.477Z,25.10
2023-04-23T15:10:21.765Z,25.37
2023-04-23T15:12:56.835Z,26.97
2023-04-23T15:15:41.208Z,32.07
2023-04-23T15:18:15.558Z,34.40
2023-04-23T15:20:44.333Z,38.60
2023-04-23T15:23:12.432Z,39.93
2023-04-23T15:25:40.981Z,41.70
2023-04-23T15:28:09.438Z,43.83
2023-04-23T15:30:37.472Z,40.33
2023-04-23T15:33:05.644Z,36.67
2023-04-23T15:35:35.116Z,37.13
2023-04-23T15:38:03.331Z,36.10
2023-04-23T15:40:31.477Z,34.67
2023-04-23T15:43:00.192Z,39.77
2023-04-23T15:45:28.453Z,37.67
2023-04-23T15:47:56.905Z,38.57
2023-04-23T15:50:26.729Z,39.63
2023-04-23T15:52:58.334Z,42.13
2023-04-23T15:55:26.618Z,42.60
2023-04-23T15:57:54.680Z,40.40
2023-04-23T16:00:23.396Z,41.40
2023-04-23T16:02:51.703Z,44.43
2023-04-23T16:05:20.251Z,46.77
2023-04-23T16:07:48.426Z,49.73
2023-04-23T16:10:17.991Z,47.53
2023-04-23T16:12:47.873Z,46.20
2023-04-23T16:15:16.089Z,46.83
2023-04-23T16:17:44.266Z,43.23
2023-04-23T16:20:13.132Z,47.00
2023-04-23T16:22:41.265Z,44.60
2023-04-23T16:25:10.429Z,49.97
2023-04-23T16:27:40.350Z,55.40
2023-04-23T16:30:09.839Z,56.50
2023-04-23T16:32:37.946Z,58.10
2023-04-23T16:35:06.660Z,54.83
2023-04-23T16:37:34.749Z,48.30
2023-04-23T16:40:03.001Z,53.30
2023-04-23T16:42:31.095Z,56.50
2023-04-23T16:45:00.606Z,56.87
2023-04-23T16:47:28.812Z,58.00
2023-04-23T16:49:56.952Z,60.83
2023-04-23T16:52:25.143Z,61.43
2023-04-23T16:54:53.240Z,59.87
2023-04-23T16:57:21.633Z,58.73
2023-04-23T16:59:49.763Z,56.90
2023-04-23T17:02:19.348Z,59.10
2023-04-23T17:04:47.985Z,58.10
2023-04-23T17:07:17.069Z,60.00
2023-04-23T17:09:45.279Z,59.10
2023-04-23T17:12:13.610Z,63.23
2023-04-23T17:14:41.807Z,63.80
2023-04-23T17:17:10.465Z,63.87
2023-04-23T17:19:39.986Z,62.90
2023-04-23T17:22:10.699Z,67.60
2023-04-23T17:24:39.374Z,61.30
2023-04-23T17:27:07.557Z,62.63
2023-04-23T17:29:35.917Z,64.90
2023-04-23T17:32:04.416Z,61.77
2023-04-23T17:34:32.634Z,60.83
2023-04-23T17:37:02.141Z,62.83
2023-04-23T17:39:30.277Z,63.97
2023-04-23T17:41:58.575Z,69.10
2023-04-23T17:44:26.808Z,63.77
2023-04-23T17:46:55.168Z,63.67
2023-04-23T17:49:23.371Z,71.07
2023-04-23T17:51:51.427Z,68.83
2023-04-23T17:54:21.382Z,70.97
2023-04-23T17:56:49.593Z,71.07
2023-04-23T17:59:17.734Z,73.17
2023-04-23T18:01:45.941Z,71.20
2023-04-23T18:04:17.370Z,77.03
2023-04-23T18:06:46.546Z,74.87
2023-04-23T18:09:15.156Z,76.93
2023-04-23T18:11:45.790Z,77.97
2023-04-23T18:14:13.880Z,77.27
2023-04-23T18:16:41.994Z,81.50
2023-04-23T18:19:10.144Z,75.97
2023-04-23T18:21:38.913Z,74.60
2023-04-23T18:24:07.539Z,74.27
2023-04-23T18:26:36.016Z,75.67
2023-04-23T18:29:05.705Z,78.07
2023-04-23T18:31:33.901Z,79.23
2023-04-23T18:34:03.263Z,78.83
2023-04-23T18:36:33.033Z,80.47
2023-04-23T18:39:01.436Z,80.77
2023-04-23T18:41:30.090Z,84.73
2023-04-23T18:44:00.115Z,84.40
2023-04-23T18:46:31.365Z,76.73
2023-04-23T18:49:01.722Z,76.23
2023-04-23T18:51:34.047Z,75.80
2023-04-23T18:54:02.742Z,74.10
2023-04-23T18:56:31.650Z,74.57
2023-04-23T18:58:59.886Z,80.13
2023-04-23T19:01:29.411Z,79.17
2023-04-23T19:03:57.966Z,79.40
2023-04-23T19:06:26.643Z,79.03
2023-04-23T19:08:54.897Z,77.97
2023-04-23T19:11:23.131Z,75.70
2023-04-23T19:13:51.314Z,76.43
2023-04-23T19:16:19.426Z,73.60
2023-04-23T19:18:49.004Z,75.90
2023-04-23T19:21:17.151Z,74.20
2023-04-23T19:23:45.240Z,74.47
2023-04-23T19:26:13.518Z,73.73
2023-04-23T19:28:41.774Z,73.10
2023-04-23T19:31:09.992Z,73.30
2023-04-23T19:33:38.207Z,71.30
2023-04-23T19:36:07.833Z,74.10
2023-04-23T19:38:35.923Z,77.37
2023-04-23T19:41:04.218Z,79.03
2023-04-23T19:43:32.440Z,80.17
2023-04-23T19:46:00.597Z,77.30
2023-04-23T19:48:28.677Z,81.97
2023-04-23T19:50:56.794Z,71.77
2023-04-23T19:53:26.909Z,73.60
2023-04-23T19:55:55.078Z,73.67
2023-04-23T19:58:23.231Z,72.00
2023-04-23T20:00:52.224Z,74.63
2023-04-23T20:03:21.148Z,69.47
2023-04-23T20:05:49.806Z,70.33
2023-04-23T20:08:26.118Z,71.70
2023-04-23T20:10:56.115Z,69.67
2023-04-23T20:13:25.089Z,69.50
2023-04-23T20:15:55.057Z,65.77
2023-04-23T20:18:25.497Z,63.00
2023-04-23T20:20:53.918Z,66.63
2023-04-23T20:23:21.976Z,63.97
2023-04-23T20:25:50.050Z,64.90
2023-04-23T20:28:19.592Z,67.23
2023-04-23T20:30:47.742Z,70.70
2023-04-23T20:33:18.682Z,68.20
2023-04-23T20:35:47.715Z,71.30
2023-04-23T20:38:19.170Z,74.77
2023-04-23T20:40:47.355Z,74.50
2023-04-23T20:43:15.540Z,73.00
2023-04-23T20:45:46.613Z,74.30
2023-04-23T20:48:15.393Z,74.17
2023-04-23T20:50:43.479Z,76.00
2023-04-23T20:53:11.569Z,79.53
2023-04-23T20:55:39.705Z,79.90
2023-04-23T20:58:07.845Z,78.20
2023-04-23T21:00:36.920Z,72.87
2023-04-23T21:03:06.913Z,73.47
2023-04-23T21:05:35.086Z,77.07
2023-04-23T21:08:03.422Z,77.70
2023-04-23T21:10:31.711Z,76.70
2023-04-23T21:13:00.071Z,77.43
2023-04-23T21:15:29.659Z,77.30
2023-04-23T21:17:57.846Z,80.37
2023-04-23T21:20:27.414Z,81.37
2023-04-23T21:22:55.805Z,84.77
2023-04-23T21:25:23.978Z,88.30
2023-04-23T21:27:52.046Z,86.77
2023-04-23T21:30:25.885Z,81.07
2023-04-23T21:32:54.358Z,85.70
2023-04-23T21:35:22.553Z,86.87
2023-04-23T21:37:52.012Z,90.33
2023-04-23T21:40:20.275Z,94.57
2023-04-23T21:42:48.453Z,90.27
2023-04-23T21:45:17.389Z,92.53
2023-04-23T21:47:45.700Z,95.93
2023-04-23T21:50:13.888Z,95.43
2023-04-23T21:52:43.971Z,96.07
2023-04-23T21:55:13.796Z,97.00
2023-04-23T21:57:41.990Z,97.27
2023-04-23T22:00:13.954Z,98.20
2023-04-23T22:02:46.335Z,99.60
2023-04-23T22:05:17.010Z,99.80
2023-04-23T22:07:45.309Z,102.43
2023-04-23T22:10:16.475Z,103.87
2023-04-23T22:12:45.678Z,101.57
2023-04-23T22:15:16.068Z,100.80
2023-04-23T22:17:46.318Z,101.80
2023-04-23T22:20:15.832Z,104.77
2023-04-23T22:22:44.472Z,95.23
2023-04-23T22:25:14.059Z,93.60
2023-04-23T22:27:42.654Z,90.03
2023-04-23T22:30:12.066Z,90.10
2023-04-23T22:32:41.335Z,86.70
2023-04-23T22:35:10.387Z,81.53
2023-04-23T22:37:38.748Z,84.10
2023-04-23T22:40:09.638Z,82.20
2023-04-23T22:42:39.475Z,82.07
2023-04-23T22:45:08.569Z,82.23
2023-04-23T22:47:36.653Z,83.20
2023-04-23T22:50:05.610Z,82.60
2023-04-23T22:52:33.804Z,82.30
2023-04-23T22:55:02.159Z,83.80
2023-04-23T22:57:30.753Z,84.43
2023-04-23T23:00:00.976Z,81.97
2023-04-23T23:02:29.232Z,80.97
2023-04-23T23:04:57.456Z,80.03
2023-04-23T23:07:25.620Z,79.17
2023-04-23T23:09:53.783Z,78.47
2023-04-23T23:12:22.470Z,80.40
2023-04-23T23:14:50.424Z,82.47
2023-04-23T23:17:19.912Z,83.60
2023-04-23T23:19:48.064Z,83.80
2023-04-23T23:22:16.343Z,83.33
2023-04-23T23:24:45.071Z,82.23
2023-04-23T23:27:13.218Z,84.43
2023-04-23T23:29:41.759Z,85.53
2023-04-23T23:32:10.176Z,83.50
2023-04-23T23:34:39.675Z,86.20
2023-04-23T23:37:07.824Z,84.90
2023-04-23T23:39:35.942Z,84.40
2023-04-23T23:42:04.092Z,86.67
2023-04-23T23:44:32.818Z,90.10
2023-04-23T23:47:01.195Z,88.60
2023-04-23T23:49:29.603Z,88.27
2023-04-23T23:51:59.299Z,86.87
2023-04-23T23:54:27.370Z,88.90
2023-04-23T23:56:56.966Z,92.13
2023-04-23T23:59:25.166Z,94.57
